Jackson Hole Airport Jackson US
ICAO: KJAC
IATA: JAC
Category: Medium
Scheduled Services: Yes

Elevation: 6451 ft
TransAlt. 18000 ft.

Airport Communications:
ATIS:120.625
AWOS 3:135.175
SALT LAKE CNTR:133.25
CTAF:118.075
GND:124.55
CASPER RDO:122.05
TWR:118.075
UNICOM:122.95

KJAC Zoom In..

If you have problems with the map follow the link
https://www.worldairports.se/pages/airport.php?
ICAO=KJAC

Runways:

(A) RW 01 length 6300 ft width 150 ft
---- / hdg 7

(B) RW 19 length 6300 ft width 150 ft
ILS 109.10 / hdg 187

Location; KJAC
Day. 18 / Time. 02.56 Zulu
* Altimeter: 30.17
* Temperature: -12° c. -10.4°f.
* Wind from: 180° Speed 04 kn.
Dewpoint: -16° c.
Visibility: 10 Statute Miles.
Clouds: Scattered 8000 ft.

KJAC 180256Z 18004KT 10SM SCT080 M12/M16 A3017 RMK AO2 SLP296 60000 T11221161 52026


Wind From 180°
Speed 04 kn.

 
 
jpsmedia worldairports.se 2020   terms of use